Ce_breeze — ELSQ7 — position and weather

sailwx.info

Track history (hours):
 
Tides and Currents Weather Stations Pressure Air Temp Water Temp Dewpoint Dewpoint Depression Visibility Wind Speed Wind Dir Waves Ship Positions

Ce_breeze

Last reported at 2016-Jul-30 01:33 UTC. Time now 2016-Jul-30 02:01 UTC.
Position N 37°38' E 023°46'.

Length 240 m; draft 10.6 m.

Type: Tanker. MMSI: 636010400.

Date/timePositionNaut miles runAvg speedWind from/ knotsBaromVisibWave heightAir tempDewpointWater temp
2016-Jul-30 01:33N 37°38' E 023°46'1010.2
2016-Jul-30 00:33N 37°28' E 023°50'10 9.8
2016-Jul-29 23:33N 37°19' E 023°52'10 9.9
2016-Jul-29 22:33N 37°09' E 023°55'10 9.9
2016-Jul-29 21:33N 36°59' E 023°57'  
2016-Jul-26 12:27N 33°58' E 027°34'16511.7
2016-Jul-25 22:19N 31°37' E 029°15'1112.3
2016-Jul-25 21:27N 31°28' E 029°22'1411.6
2016-Jul-25 20:14N 31°16' E 029°30'8 9.9
2016-Jul-25 19:27N 31°11' E 029°37'5 5.6
2016-Jul-25 18:33N 31°06' E 029°39'1 0.0
2016-Jul-24 22:30N 31°06' E 029°39'0 0.2
2016-Jul-24 21:34N 31°05' E 029°39'5 0.7
2016-Jul-24 14:25N 31°08' E 029°34'0 0.0
2016-Jul-24 12:10N 31°08' E 029°34'0 0.1
2016-Jul-24 11:31N 31°08' E 029°34'470 9.7
2016-Jul-22 11:06N 37°21' E 023°47'712.7
2016-Jul-22 10:33N 37°27' E 023°44'1212.6
2016-Jul-22 09:33N 37°40' E 023°42'1110.9
2016-Jul-22 08:34N 37°50' E 023°36'5 4.7
2016-Jul-22 07:31N 37°52' E 023°31'0 0.1
2016-Jul-22 04:28N 37°52' E 023°31'0 0.0
2016-Jul-22 03:31N 37°52' E 023°31'0 0.0
2016-Jul-22 02:31N 37°52' E 023°31'0 0.0
2016-Jul-22 01:31N 37°52' E 023°31'0 0.1
2016-Jul-22 00:31N 37°52' E 023°31'0 0.0
2016-Jul-21 23:31N 37°52' E 023°31'0 0.1
2016-Jul-21 22:31N 37°52' E 023°31'0 0.0
2016-Jul-21 21:31N 37°52' E 023°31'0 0.0
2016-Jul-21 20:31N 37°52' E 023°31'0 0.1
2016-Jul-21 19:31N 37°52' E 023°30'0 0.1
2016-Jul-21 18:31N 37°52' E 023°30'0 0.0
2016-Jul-21 17:31N 37°52' E 023°30'0 0.0
2016-Jul-21 16:31N 37°52' E 023°31'0 0.0
2016-Jul-21 15:31N 37°52' E 023°30'0 0.0
2016-Jul-21 14:31N 37°52' E 023°30'0 0.1
2016-Jul-21 13:31N 37°52' E 023°30'0 0.0
2016-Jul-21 12:31N 37°52' E 023°30'0 0.0
2016-Jul-21 11:31N 37°52' E 023°31'0 0.0
2016-Jul-21 10:31N 37°52' E 023°30'0 0.0
2016-Jul-21 09:31N 37°52' E 023°31'0 0.0
2016-Jul-21 08:31N 37°52' E 023°31'0 0.1
2016-Jul-21 07:31N 37°52' E 023°31'0 0.0
2016-Jul-21 06:31N 37°52' E 023°31'0 0.0
2016-Jul-21 05:31N 37°52' E 023°31'0 0.1
2016-Jul-21 04:31N 37°52' E 023°31'0 0.0
2016-Jul-21 03:31N 37°52' E 023°31'0 0.0
2016-Jul-21 02:31N 37°52' E 023°31'0 0.0
2016-Jul-21 01:31N 37°52' E 023°31'0 0.0
2016-Jul-21 00:31N 37°52' E 023°31'0 0.0
2016-Jul-20 23:31N 37°52' E 023°30'0 0.0
2016-Jul-20 22:31N 37°52' E 023°31'0 0.0
2016-Jul-20 21:31N 37°52' E 023°31'0 0.0
2016-Jul-20 20:31N 37°52' E 023°31'0 0.0
2016-Jul-20 19:31N 37°52' E 023°31'0 0.0
2016-Jul-20 18:31N 37°52' E 023°31'0 0.0
2016-Jul-20 17:31N 37°52' E 023°31'0 0.0
2016-Jul-20 16:31N 37°52' E 023°31'0 0.0
2016-Jul-20 15:28N 37°52' E 023°31'0 0.0
2016-Jul-20 14:31N 37°52' E 023°31'0 0.0
2016-Jul-20 13:31N 37°52' E 023°31'0 0.0
2016-Jul-20 12:31N 37°52' E 023°31'0 0.0
2016-Jul-20 11:31N 37°52' E 023°31'0 0.0
2016-Jul-20 10:31N 37°52' E 023°31'0 0.0
2016-Jul-20 09:31N 37°52' E 023°31'0 0.0
2016-Jul-20 08:31N 37°52' E 023°31'0 0.0
2016-Jul-20 07:31N 37°52' E 023°31'0 0.0
2016-Jul-20 06:34N 37°52' E 023°31'0 0.0
2016-Jul-20 05:31N 37°52' E 023°31'0 0.0
2016-Jul-20 04:31N 37°52' E 023°31'0 0.0
2016-Jul-20 03:31N 37°52' E 023°31'0 0.0
2016-Jul-20 02:31N 37°52' E 023°31'  
Track history (hours):
 
Tides and Currents Weather Stations Pressure Air Temp Water Temp Dewpoint Dewpoint Depression Visibility Wind Speed Wind Dir Waves Ship Positions

Ce_breeze

Last reported at 2016-Jul-30 01:33 UTC. Time now 2016-Jul-30 02:01 UTC.
Position N 37°38' E 023°46'.

Length 240 m; draft 10.6 m.

Type: Tanker. MMSI: 636010400.

Date/timePositionNaut miles runAvg speedWind from/ knotsBaromVisibWave heightAir tempDewpointWater temp
2016-Jul-30 01:33N 37°38' E 023°46'1010.2
2016-Jul-30 00:33N 37°28' E 023°50'10 9.8
2016-Jul-29 23:33N 37°19' E 023°52'10 9.9
2016-Jul-29 22:33N 37°09' E 023°55'10 9.9
2016-Jul-29 21:33N 36°59' E 023°57'  
2016-Jul-26 12:27N 33°58' E 027°34'16511.7
2016-Jul-25 22:19N 31°37' E 029°15'1112.3
2016-Jul-25 21:27N 31°28' E 029°22'1411.6
2016-Jul-25 20:14N 31°16' E 029°30'8 9.9
2016-Jul-25 19:27N 31°11' E 029°37'5 5.6
2016-Jul-25 18:33N 31°06' E 029°39'1 0.0
2016-Jul-24 22:30N 31°06' E 029°39'0 0.2
2016-Jul-24 21:34N 31°05' E 029°39'5 0.7
2016-Jul-24 14:25N 31°08' E 029°34'0 0.0
2016-Jul-24 12:10N 31°08' E 029°34'0 0.1
2016-Jul-24 11:31N 31°08' E 029°34'470 9.7
2016-Jul-22 11:06N 37°21' E 023°47'712.7
2016-Jul-22 10:33N 37°27' E 023°44'1212.6
2016-Jul-22 09:33N 37°40' E 023°42'1110.9
2016-Jul-22 08:34N 37°50' E 023°36'5 4.7
2016-Jul-22 07:31N 37°52' E 023°31'0 0.1
2016-Jul-22 04:28N 37°52' E 023°31'0 0.0
2016-Jul-22 03:31N 37°52' E 023°31'0 0.0
2016-Jul-22 02:31N 37°52' E 023°31'0 0.0
2016-Jul-22 01:31N 37°52' E 023°31'0 0.1
2016-Jul-22 00:31N 37°52' E 023°31'0 0.0
2016-Jul-21 23:31N 37°52' E 023°31'0 0.1
2016-Jul-21 22:31N 37°52' E 023°31'0 0.0
2016-Jul-21 21:31N 37°52' E 023°31'0 0.0
2016-Jul-21 20:31N 37°52' E 023°31'0 0.1
2016-Jul-21 19:31N 37°52' E 023°30'0 0.1
2016-Jul-21 18:31N 37°52' E 023°30'0 0.0
2016-Jul-21 17:31N 37°52' E 023°30'0 0.0
2016-Jul-21 16:31N 37°52' E 023°31'0 0.0
2016-Jul-21 15:31N 37°52' E 023°30'0 0.0
2016-Jul-21 14:31N 37°52' E 023°30'0 0.1
2016-Jul-21 13:31N 37°52' E 023°30'0 0.0
2016-Jul-21 12:31N 37°52' E 023°30'0 0.0
2016-Jul-21 11:31N 37°52' E 023°31'0 0.0
2016-Jul-21 10:31N 37°52' E 023°30'0 0.0
2016-Jul-21 09:31N 37°52' E 023°31'0 0.0
2016-Jul-21 08:31N 37°52' E 023°31'0 0.1
2016-Jul-21 07:31N 37°52' E 023°31'0 0.0
2016-Jul-21 06:31N 37°52' E 023°31'0 0.0
2016-Jul-21 05:31N 37°52' E 023°31'0 0.1
2016-Jul-21 04:31N 37°52' E 023°31'0 0.0
2016-Jul-21 03:31N 37°52' E 023°31'0 0.0
2016-Jul-21 02:31N 37°52' E 023°31'0 0.0
2016-Jul-21 01:31N 37°52' E 023°31'0 0.0
2016-Jul-21 00:31N 37°52' E 023°31'0 0.0
2016-Jul-20 23:31N 37°52' E 023°30'0 0.0
2016-Jul-20 22:31N 37°52' E 023°31'0 0.0
2016-Jul-20 21:31N 37°52' E 023°31'0 0.0
2016-Jul-20 20:31N 37°52' E 023°31'0 0.0
2016-Jul-20 19:31N 37°52' E 023°31'0 0.0
2016-Jul-20 18:31N 37°52' E 023°31'0 0.0
2016-Jul-20 17:31N 37°52' E 023°31'0 0.0
2016-Jul-20 16:31N 37°52' E 023°31'0 0.0
2016-Jul-20 15:28N 37°52' E 023°31'0 0.0
2016-Jul-20 14:31N 37°52' E 023°31'0 0.0
2016-Jul-20 13:31N 37°52' E 023°31'0 0.0
2016-Jul-20 12:31N 37°52' E 023°31'0 0.0
2016-Jul-20 11:31N 37°52' E 023°31'0 0.0
2016-Jul-20 10:31N 37°52' E 023°31'0 0.0
2016-Jul-20 09:31N 37°52' E 023°31'0 0.0
2016-Jul-20 08:31N 37°52' E 023°31'0 0.0
2016-Jul-20 07:31N 37°52' E 023°31'0 0.0
2016-Jul-20 06:34N 37°52' E 023°31'0 0.0
2016-Jul-20 05:31N 37°52' E 023°31'0 0.0
2016-Jul-20 04:31N 37°52' E 023°31'0 0.0
2016-Jul-20 03:31N 37°52' E 023°31'0 0.0
2016-Jul-20 02:31N 37°52' E 023°31'  

Dump ship's entire track history